Pine Level, North Carolina
Current Conditions -  °F | °C
As of 1:35 AM on Wednesday 26 Nov 2014 (Local Time) from KJNX Reporting Station
Heavy Rain Heavy Rain  
Wind Chill: 52°   Ceiling: 400
Heat Index: 52°   Visibility: 4mi
Dew Point: 52°   Wind: 7mph
Humidity: 100%   Direction: 30°NNE
Pressure: 29.93"   Gusts: NA
Location:  35.51°N, 78.24°W
Report Text: KJNX 260635Z AUTO 03006KT 4SM +RA OVC004 11/11 A2993 RMK AO2 P0002
Loading
Personal Weather Stations






























Interactive Weather Map New forecast layout! Learn more

10-Day Weather Forecast

Advertisements
Track Severe Weather on mobile